sensor_id;sensor_type;location;lat;lon;timestamp;pressure;altitude;pressure_sealevel;temperature;humidity
55044;BME280;54902;50.420;18.854;2023-02-26T00:00:23;100106.16;;;1.60;82.48
55044;BME280;54902;50.420;18.854;2023-02-26T00:00:54;100110.67;;;1.60;82.48
55044;BME280;54902;50.420;18.854;2023-02-26T00:01:29;100105.30;;;1.60;82.46
55044;BME280;54902;50.420;18.854;2023-02-26T00:02:00;100110.67;;;1.60;82.44
55044;BME280;54902;50.420;18.854;2023-02-26T00:02:33;100105.30;;;1.60;82.40
55044;BME280;54902;50.420;18.854;2023-02-26T00:03:04;100105.30;;;1.60;82.38
55044;BME280;54902;50.420;18.854;2023-02-26T00:03:34;100109.79;;;1.59;82.39
55044;BME280;54902;50.420;18.854;2023-02-26T00:04:06;100119.70;;;1.59;82.37
55044;BME280;54902;50.420;18.854;2023-02-26T00:04:38;100116.06;;;1.60;82.36
55044;BME280;54902;50.420;18.854;2023-02-26T00:05:09;100118.84;;;1.58;82.35
55044;BME280;54902;50.420;18.854;2023-02-26T00:05:40;100117.02;;;1.59;82.35
55044;BME280;54902;50.420;18.854;2023-02-26T00:06:10;100119.70;;;1.59;82.33
55044;BME280;54902;50.420;18.854;2023-02-26T00:06:41;100123.34;;;1.58;82.32
55044;BME280;54902;50.420;18.854;2023-02-26T00:07:23;100122.48;;;1.57;82.30
55044;BME280;54902;50.420;18.854;2023-02-26T00:07:58;100114.41;;;1.57;82.10
55044;BME280;54902;50.420;18.854;2023-02-26T00:08:29;100127.02;;;1.57;82.27
55044;BME280;54902;50.420;18.854;2023-02-26T00:09:02;100116.25;;;1.57;82.28
55044;BME280;54902;50.420;18.854;2023-02-26T00:09:33;100129.70;;;1.57;82.28
55044;BME280;54902;50.420;18.854;2023-02-26T00:10:09;100121.63;;;1.57;82.29
55044;BME280;54902;50.420;18.854;2023-02-26T00:10:40;100120.74;;;1.56;82.32
55044;BME280;54902;50.420;18.854;2023-02-26T00:11:12;100126.13;;;1.56;82.33
55044;BME280;54902;50.420;18.854;2023-02-26T00:11:44;100127.97;;;1.56;82.34
55044;BME280;54902;50.420;18.854;2023-02-26T00:12:16;100124.32;;;1.57;82.32
55044;BME280;54902;50.420;18.854;2023-02-26T00:12:47;100136.04;;;1.56;82.33
55044;BME280;54902;50.420;18.854;2023-02-26T00:13:19;100132.40;;;1.57;82.31
55044;BME280;54902;50.420;18.854;2023-02-26T00:13:50;100127.88;;;1.57;82.30
55044;BME280;54902;50.420;18.854;2023-02-26T00:14:22;100132.40;;;1.57;82.26
55044;BME280;54902;50.420;18.854;2023-02-26T00:14:53;100129.76;;;1.55;82.26
55044;BME280;54902;50.420;18.854;2023-02-26T00:15:25;100141.42;;;1.56;82.24
55044;BME280;54902;50.420;18.854;2023-02-26T00:15:59;100140.52;;;1.55;82.24
55044;BME280;54902;50.420;18.854;2023-02-26T00:16:32;100125.27;;;1.56;82.23
55044;BME280;54902;50.420;18.854;2023-02-26T00:17:57;100137.93;;;1.54;82.21
55044;BME280;54902;50.420;18.854;2023-02-26T00:18:29;100129.86;;;1.54;82.21
55044;BME280;54902;50.420;18.854;2023-02-26T00:19:03;100134.39;;;1.53;82.20
55044;BME280;54902;50.420;18.854;2023-02-26T00:19:34;100137.93;;;1.54;82.20
55044;BME280;54902;50.420;18.854;2023-02-26T00:20:07;100134.48;;;1.52;82.16
55044;BME280;54902;50.420;18.854;2023-02-26T00:20:38;100137.17;;;1.52;82.15
55044;BME280;54902;50.420;18.854;2023-02-26T00:21:16;100135.42;;;1.51;82.14
55044;BME280;54902;50.420;18.854;2023-02-26T00:21:47;100139.86;;;1.52;82.16
55044;BME280;54902;50.420;18.854;2023-02-26T00:22:18;100139.07;;;1.50;82.16
55044;BME280;54902;50.420;18.854;2023-02-26T00:22:50;100140.80;;;1.51;82.17
55044;BME280;54902;50.420;18.854;2023-02-26T00:23:22;100136.38;;;1.50;82.16
55044;BME280;54902;50.420;18.854;2023-02-26T00:23:54;100143.50;;;1.51;82.20
55044;BME280;54902;50.420;18.854;2023-02-26T00:24:25;100141.76;;;1.50;82.17
55044;BME280;54902;50.420;18.854;2023-02-26T00:24:56;100134.64;;;1.49;82.19
55044;BME280;54902;50.420;18.854;2023-02-26T00:25:27;100137.33;;;1.49;82.19
55044;BME280;54902;50.420;18.854;2023-02-26T00:25:58;100145.40;;;1.49;82.21
55044;BME280;54902;50.420;18.854;2023-02-26T00:26:30;100140.90;;;1.49;82.21
55044;BME280;54902;50.420;18.854;2023-02-26T00:27:01;100140.01;;;1.49;82.21
55044;BME280;54902;50.420;18.854;2023-02-26T00:27:32;100147.23;;;1.48;82.21
55044;BME280;54902;50.420;18.854;2023-02-26T00:28:03;100149.92;;;1.48;82.20
55044;BME280;54902;50.420;18.854;2023-02-26T00:28:35;100144.55;;;1.48;82.17
55044;BME280;54902;50.420;18.854;2023-02-26T00:29:06;100146.38;;;1.48;82.22
55044;BME280;54902;50.420;18.854;2023-02-26T00:29:37;100156.26;;;1.47;82.20
55044;BME280;54902;50.420;18.854;2023-02-26T00:30:09;100151.75;;;1.48;82.21
55044;BME280;54902;50.420;18.854;2023-02-26T00:30:41;100152.70;;;1.47;82.19
55044;BME280;54902;50.420;18.854;2023-02-26T00:31:13;100148.18;;;1.47;82.18
55044;BME280;54902;50.420;18.854;2023-02-26T00:31:45;100153.55;;;1.47;82.15
55044;BME280;54902;50.420;18.854;2023-02-26T00:32:16;100161.63;;;1.47;82.13
55044;BME280;54902;50.420;18.854;2023-02-26T00:32:50;100159.84;;;1.48;82.12
55044;BME280;54902;50.420;18.854;2023-02-26T00:33:22;100164.32;;;1.47;82.11
55044;BME280;54902;50.420;18.854;2023-02-26T00:33:55;100161.73;;;1.46;82.09
55044;BME280;54902;50.420;18.854;2023-02-26T00:34:26;100162.61;;;1.46;82.09
55044;BME280;54902;50.420;18.854;2023-02-26T00:34:57;100166.25;;;1.45;82.09
55044;BME280;54902;50.420;18.854;2023-02-26T00:35:29;100163.56;;;1.45;82.06
55044;BME280;54902;50.420;18.854;2023-02-26T00:36:12;100172.48;;;1.46;82.07
55044;BME280;54902;50.420;18.854;2023-02-26T00:38:11;100168.05;;;1.45;82.03
55044;BME280;54902;50.420;18.854;2023-02-26T00:40:27;100169.88;;;1.44;81.98
55044;BME280;54902;50.420;18.854;2023-02-26T00:40:58;100164.59;;;1.43;81.95
55044;BME280;54902;50.420;18.854;2023-02-26T00:41:29;100172.67;;;1.43;81.95
55044;BME280;54902;50.420;18.854;2023-02-26T00:42:01;100175.35;;;1.43;81.94
55044;BME280;54902;50.420;18.854;2023-02-26T00:42:33;100166.44;;;1.42;81.92
55044;BME280;54902;50.420;18.854;2023-02-26T00:43:07;100178.05;;;1.43;81.91
55044;BME280;54902;50.420;18.854;2023-02-26T00:43:39;100175.45;;;1.41;81.93
55044;BME280;54902;50.420;18.854;2023-02-26T00:44:10;100170.93;;;1.42;81.94
55044;BME280;54902;50.420;18.854;2023-02-26T00:44:42;100170.08;;;1.41;81.93
55044;BME280;54902;50.420;18.854;2023-02-26T00:45:13;100171.81;;;1.42;81.91
55044;BME280;54902;50.420;18.854;2023-02-26T00:48:44;100180.98;;;1.38;81.84
55044;BME280;54902;50.420;18.854;2023-02-26T00:50:45;100178.38;;;1.37;81.83
55044;BME280;54902;50.420;18.854;2023-02-26T00:52:05;100169.45;;;1.36;81.83
55044;BME280;54902;50.420;18.854;2023-02-26T00:53:26;100183.76;;;1.37;81.81
55044;BME280;54902;50.420;18.854;2023-02-26T00:54:41;100179.37;;;1.36;81.80
55044;BME280;54902;50.420;18.854;2023-02-26T00:55:12;100180.31;;;1.35;81.94
55044;BME280;54902;50.420;18.854;2023-02-26T00:55:43;100189.23;;;1.35;81.78
55044;BME280;54902;50.420;18.854;2023-02-26T00:56:14;100189.23;;;1.35;81.79
55044;BME280;54902;50.420;18.854;2023-02-26T00:56:45;100185.69;;;1.35;81.79
55044;BME280;54902;50.420;18.854;2023-02-26T00:57:15;100187.48;;;1.34;81.78
55044;BME280;54902;50.420;18.854;2023-02-26T00:57:46;100191.07;;;1.35;81.77
55044;BME280;54902;50.420;18.854;2023-02-26T00:58:17;100194.70;;;1.34;81.77
55044;BME280;54902;50.420;18.854;2023-02-26T00:58:48;100189.33;;;1.34;81.76
55044;BME280;54902;50.420;18.854;2023-02-26T00:59:20;100192.95;;;1.33;81.76
55044;BME280;54902;50.420;18.854;2023-02-26T00:59:51;100182.20;;;1.33;81.78
55044;BME280;54902;50.420;18.854;2023-02-26T01:00:22;100185.16;;;1.28;81.78
55044;BME280;54902;50.420;18.854;2023-02-26T01:00:53;100191.25;;;1.32;81.81
55044;BME280;54902;50.420;18.854;2023-02-26T01:01:24;100192.95;;;1.33;81.81
55044;BME280;54902;50.420;18.854;2023-02-26T01:01:55;100192.10;;;1.32;81.79
55044;BME280;54902;50.420;18.854;2023-02-26T01:02:26;100195.66;;;1.33;81.79
55044;BME280;54902;50.420;18.854;2023-02-26T01:02:57;100197.48;;;1.32;81.77
55044;BME280;54902;50.420;18.854;2023-02-26T01:03:30;100181.44;;;1.31;81.76
55044;BME280;54902;50.420;18.854;2023-02-26T01:04:02;100196.64;;;1.32;81.76
55044;BME280;54902;50.420;18.854;2023-02-26T01:04:33;100194.88;;;1.31;81.76
55044;BME280;54902;50.420;18.854;2023-02-26T01:05:05;100185.88;;;1.32;81.77
55044;BME280;54902;50.420;18.854;2023-02-26T01:05:37;100194.88;;;1.31;81.76
55044;BME280;54902;50.420;18.854;2023-02-26T01:06:14;100190.45;;;1.30;81.75
55044;BME280;54902;50.420;18.854;2023-02-26T01:06:49;100188.62;;;1.30;81.73
55044;BME280;54902;50.420;18.854;2023-02-26T01:07:22;100187.77;;;1.30;81.72
55044;BME280;54902;50.420;18.854;2023-02-26T01:08:49;100197.67;;;1.29;81.70
55044;BME280;54902;50.420;18.854;2023-02-26T01:09:32;100196.78;;;1.29;81.69
55044;BME280;54902;50.420;18.854;2023-02-26T01:10:07;100195.07;;;1.28;81.70
55044;BME280;54902;50.420;18.854;2023-02-26T01:10:38;100191.49;;;1.27;81.69
55044;BME280;54902;50.420;18.854;2023-02-26T01:11:10;100203.14;;;1.28;81.69
55044;BME280;54902;50.420;18.854;2023-02-26T01:11:41;100194.18;;;1.27;81.70
55044;BME280;54902;50.420;18.854;2023-02-26T01:12:12;100194.18;;;1.27;81.69
55044;BME280;54902;50.420;18.854;2023-02-26T01:12:44;100192.52;;;1.25;81.70
55044;BME280;54902;50.420;18.854;2023-02-26T01:13:15;100195.12;;;1.26;81.70
55044;BME280;54902;50.420;18.854;2023-02-26T01:13:46;100196.96;;;1.26;81.71
55044;BME280;54902;50.420;18.854;2023-02-26T01:14:18;100194.27;;;1.26;81.70
55044;BME280;54902;50.420;18.854;2023-02-26T01:14:50;100196.11;;;1.25;81.72
55044;BME280;54902;50.420;18.854;2023-02-26T01:15:23;100189.84;;;1.25;81.75
55044;BME280;54902;50.420;18.854;2023-02-26T01:15:58;100190.72;;;1.25;81.76
55044;BME280;54902;50.420;18.854;2023-02-26T01:16:49;100192.52;;;1.25;81.79
55044;BME280;54902;50.420;18.854;2023-02-26T01:17:26;100194.36;;;1.24;81.80
55044;BME280;54902;50.420;18.854;2023-02-26T01:18:06;100197.90;;;1.25;81.79
55044;BME280;54902;50.420;18.854;2023-02-26T01:18:47;100196.16;;;1.24;81.80
55044;BME280;54902;50.420;18.854;2023-02-26T01:20:12;100189.92;;;1.23;81.79
55044;BME280;54902;50.420;18.854;2023-02-26T01:20:53;100195.30;;;1.23;81.80
55044;BME280;54902;50.420;18.854;2023-02-26T01:21:36;100198.84;;;1.24;81.82
55044;BME280;54902;50.420;18.854;2023-02-26T01:23:00;100193.48;;;1.24;81.79
55044;BME280;54902;50.420;18.854;2023-02-26T01:23:38;100197.99;;;1.23;81.74
55044;BME280;54902;50.420;18.854;2023-02-26T01:24:14;100198.84;;;1.24;81.71
55044;BME280;54902;50.420;18.854;2023-02-26T01:24:53;100197.14;;;1.23;81.67
55044;BME280;54902;50.420;18.854;2023-02-26T01:25:35;100197.14;;;1.23;81.66
55044;BME280;54902;50.420;18.854;2023-02-26T01:26:21;100197.14;;;1.23;81.64
55044;BME280;54902;50.420;18.854;2023-02-26T01:26:52;100205.30;;;1.21;81.53
55044;BME280;54902;50.420;18.854;2023-02-26T01:27:24;100186.09;;;1.12;81.60
55044;BME280;54902;50.420;18.854;2023-02-26T01:27:55;100202.61;;;1.21;81.61
55044;BME280;54902;50.420;18.854;2023-02-26T01:28:27;100200.77;;;1.22;81.59
55044;BME280;54902;50.420;18.854;2023-02-26T01:28:59;100202.61;;;1.21;81.59
55044;BME280;54902;50.420;18.854;2023-02-26T01:29:30;100211.53;;;1.22;81.58
55044;BME280;54902;50.420;18.854;2023-02-26T01:30:03;100211.53;;;1.22;81.57
55044;BME280;54902;50.420;18.854;2023-02-26T01:30:36;100208.05;;;1.20;81.53
55044;BME280;54902;50.420;18.854;2023-02-26T01:31:15;100208.05;;;1.20;81.52
55044;BME280;54902;50.420;18.854;2023-02-26T01:33:21;100211.71;;;1.19;81.48
55044;BME280;54902;50.420;18.854;2023-02-26T01:34:05;100205.45;;;1.18;81.49
55044;BME280;54902;50.420;18.854;2023-02-26T01:34:49;100209.96;;;1.18;81.49
55044;BME280;54902;50.420;18.854;2023-02-26T01:36:11;100216.28;;;1.17;81.50
55044;BME280;54902;50.420;18.854;2023-02-26T01:37:33;100220.81;;;1.16;81.56
55044;BME280;54902;50.420;18.854;2023-02-26T01:38:19;100211.84;;;1.16;81.54
55044;BME280;54902;50.420;18.854;2023-02-26T01:39:47;100214.55;;;1.16;81.52
55044;BME280;54902;50.420;18.854;2023-02-26T01:41:15;100211.84;;;1.16;81.48
55044;BME280;54902;50.420;18.854;2023-02-26T01:42:03;100220.90;;;1.15;81.45
55044;BME280;54902;50.420;18.854;2023-02-26T01:42:35;100210.99;;;1.15;81.46
55044;BME280;54902;50.420;18.854;2023-02-26T01:43:16;100212.89;;;1.13;81.42
55044;BME280;54902;50.420;18.854;2023-02-26T01:44:01;100219.16;;;1.14;81.41
55044;BME280;54902;50.420;18.854;2023-02-26T01:45:20;100209.35;;;1.13;81.36
55044;BME280;54902;50.420;18.854;2023-02-26T01:46:05;100219.16;;;1.14;81.30
55044;BME280;54902;50.420;18.854;2023-02-26T01:46:50;100222.79;;;1.13;81.25
55044;BME280;54902;50.420;18.854;2023-02-26T01:48:10;100220.10;;;1.13;81.11
55044;BME280;54902;50.420;18.854;2023-02-26T01:48:49;100225.56;;;1.12;81.07
55044;BME280;54902;50.420;18.854;2023-02-26T01:49:22;100217.59;;;1.10;81.05
55044;BME280;54902;50.420;18.854;2023-02-26T01:49:54;100222.97;;;1.10;81.00
55044;BME280;54902;50.420;18.854;2023-02-26T01:50:25;100222.97;;;1.10;81.00
55044;BME280;54902;50.420;18.854;2023-02-26T01:50:59;100222.97;;;1.10;80.97
55044;BME280;54902;50.420;18.854;2023-02-26T01:53:39;100232.92;;;1.08;80.96
55044;BME280;54902;50.420;18.854;2023-02-26T01:54:10;100226.77;;;1.06;80.95
55044;BME280;54902;50.420;18.854;2023-02-26T01:54:41;100232.16;;;1.06;80.97
55044;BME280;54902;50.420;18.854;2023-02-26T01:55:21;100225.88;;;1.06;80.97
55044;BME280;54902;50.420;18.854;2023-02-26T01:56:05;100231.27;;;1.06;80.98
55044;BME280;54902;50.420;18.854;2023-02-26T01:56:38;100230.41;;;1.05;80.98
55044;BME280;54902;50.420;18.854;2023-02-26T01:57:16;100227.72;;;1.05;80.97
55044;BME280;54902;50.420;18.854;2023-02-26T01:57:49;100239.42;;;1.04;80.96
55044;BME280;54902;50.420;18.854;2023-02-26T01:58:23;100226.95;;;1.03;80.97
55044;BME280;54902;50.420;18.854;2023-02-26T01:58:56;100228.66;;;1.04;80.97
55044;BME280;54902;50.420;18.854;2023-02-26T01:59:28;100237.71;;;1.03;80.93
55044;BME280;54902;50.420;18.854;2023-02-26T01:59:59;100232.33;;;1.03;80.93
55044;BME280;54902;50.420;18.854;2023-02-26T02:00:30;100241.34;;;1.02;80.90
55044;BME280;54902;50.420;18.854;2023-02-26T02:01:02;100238.57;;;1.04;80.88
55044;BME280;54902;50.420;18.854;2023-02-26T02:01:36;100245.77;;;1.03;80.86
55044;BME280;54902;50.420;18.854;2023-02-26T02:02:09;100241.42;;;1.01;80.86
55044;BME280;54902;50.420;18.854;2023-02-26T02:02:41;100240.45;;;1.02;80.82
55044;BME280;54902;50.420;18.854;2023-02-26T02:03:12;100245.83;;;1.02;80.82
55044;BME280;54902;50.420;18.854;2023-02-26T02:03:43;100244.97;;;1.01;80.82
55044;BME280;54902;50.420;18.854;2023-02-26T02:04:15;100245.91;;;1.00;80.76
55044;BME280;54902;50.420;18.854;2023-02-26T02:04:47;100239.68;;;1.00;80.79
55044;BME280;54902;50.420;18.854;2023-02-26T02:05:34;100252.19;;;1.01;80.78
55044;BME280;54902;50.420;18.854;2023-02-26T02:06:04;100248.69;;;0.99;80.77
55044;BME280;54902;50.420;18.854;2023-02-26T02:06:37;100255.90;;;0.98;80.77
55044;BME280;54902;50.420;18.854;2023-02-26T02:07:10;100245.15;;;0.98;80.76
55044;BME280;54902;50.420;18.854;2023-02-26T02:07:41;100251.47;;;0.97;80.77
55044;BME280;54902;50.420;18.854;2023-02-26T02:08:12;100255.09;;;0.96;80.77
55044;BME280;54902;50.420;18.854;2023-02-26T02:08:43;100257.78;;;0.96;80.78
55044;BME280;54902;50.420;18.854;2023-02-26T02:09:15;100260.48;;;0.96;80.77
55044;BME280;54902;50.420;18.854;2023-02-26T02:09:46;100260.56;;;0.95;80.77
55044;BME280;54902;50.420;18.854;2023-02-26T02:10:17;100265.94;;;0.95;80.77
55044;BME280;54902;50.420;18.854;2023-02-26T02:10:49;100262.40;;;0.94;80.79
55044;BME280;54902;50.420;18.854;2023-02-26T02:11:21;100270.47;;;0.94;80.79
55044;BME280;54902;50.420;18.854;2023-02-26T02:12:40;100263.33;;;0.93;80.82
55044;BME280;54902;50.420;18.854;2023-02-26T02:15:37;100276.87;;;0.92;80.87
55044;BME280;54902;50.420;18.854;2023-02-26T02:16:56;100272.43;;;0.91;80.85
55044;BME280;54902;50.420;18.854;2023-02-26T02:21:19;100281.52;;;0.88;80.85
55044;BME280;54902;50.420;18.854;2023-02-26T02:23:21;100281.61;;;0.87;80.87
55044;BME280;54902;50.420;18.854;2023-02-26T02:24:05;100285.15;;;0.87;80.85
55044;BME280;54902;50.420;18.854;2023-02-26T02:26:15;100296.88;;;0.86;80.83
55044;BME280;54902;50.420;18.854;2023-02-26T02:29:52;100298.68;;;0.86;80.83
55044;BME280;54902;50.420;18.854;2023-02-26T02:31:49;100302.31;;;0.85;80.81
55044;BME280;54902;50.420;18.854;2023-02-26T02:33:12;100302.31;;;0.85;80.78
55044;BME280;54902;50.420;18.854;2023-02-26T02:34:02;100291.55;;;0.85;80.76
55044;BME280;54902;50.420;18.854;2023-02-26T02:34:33;100301.45;;;0.84;80.73
55044;BME280;54902;50.420;18.854;2023-02-26T02:35:14;100304.23;;;0.83;80.71
55044;BME280;54902;50.420;18.854;2023-02-26T02:35:56;100303.28;;;0.84;80.70
55044;BME280;54902;50.420;18.854;2023-02-26T02:36:37;100305.98;;;0.84;80.63
55044;BME280;54902;50.420;18.854;2023-02-26T02:37:58;100309.60;;;0.83;80.63
55044;BME280;54902;50.420;18.854;2023-02-26T02:38:41;100308.75;;;0.82;80.58
55044;BME280;54902;50.420;18.854;2023-02-26T02:40:04;100312.38;;;0.81;80.58
55044;BME280;54902;50.420;18.854;2023-02-26T02:40:42;100312.38;;;0.81;80.58
55044;BME280;54902;50.420;18.854;2023-02-26T02:41:24;100318.69;;;0.80;80.55
55044;BME280;54902;50.420;18.854;2023-02-26T02:42:15;100310.62;;;0.80;80.54
55044;BME280;54902;50.420;18.854;2023-02-26T02:43:28;100311.56;;;0.79;80.46
55044;BME280;54902;50.420;18.854;2023-02-26T02:44:04;100313.31;;;0.80;80.45
55044;BME280;54902;50.420;18.854;2023-02-26T02:44:40;100317.83;;;0.80;80.41
55044;BME280;54902;50.420;18.854;2023-02-26T02:45:23;100313.39;;;0.79;80.39
55044;BME280;54902;50.420;18.854;2023-02-26T02:46:02;100313.39;;;0.79;80.37
55044;BME280;54902;50.420;18.854;2023-02-26T02:46:37;100312.54;;;0.78;80.36
55044;BME280;54902;50.420;18.854;2023-02-26T02:47:11;100318.87;;;0.77;80.34
55044;BME280;54902;50.420;18.854;2023-02-26T02:47:49;100309.91;;;0.77;80.36
55044;BME280;54902;50.420;18.854;2023-02-26T02:48:30;100326.92;;;0.77;80.34
55044;BME280;54902;50.420;18.854;2023-02-26T02:49:09;100314.43;;;0.76;80.33
55044;BME280;54902;50.420;18.854;2023-02-26T02:49:47;100319.80;;;0.76;80.32
55044;BME280;54902;50.420;18.854;2023-02-26T02:50:27;100321.63;;;0.76;80.31
55044;BME280;54902;50.420;18.854;2023-02-26T02:51:10;100328.80;;;0.75;80.27
55044;BME280;54902;50.420;18.854;2023-02-26T02:51:45;100321.68;;;0.74;80.25
55044;BME280;54902;50.420;18.854;2023-02-26T02:52:27;100311.91;;;0.73;80.25
55044;BME280;54902;50.420;18.854;2023-02-26T02:53:10;100319.96;;;0.73;80.28
55044;BME280;54902;50.420;18.854;2023-02-26T02:53:49;100316.31;;;0.74;80.27
55044;BME280;54902;50.420;18.854;2023-02-26T02:54:33;100321.68;;;0.74;80.24
55044;BME280;54902;50.420;18.854;2023-02-26T02:55:16;100319.07;;;0.73;80.21
55044;BME280;54902;50.420;18.854;2023-02-26T02:55:57;100325.34;;;0.73;80.12
55044;BME280;54902;50.420;18.854;2023-02-26T02:56:38;100319.96;;;0.73;80.09
55044;BME280;54902;50.420;18.854;2023-02-26T02:58:03;100326.29;;;0.72;80.08
55044;BME280;54902;50.420;18.854;2023-02-26T02:58:39;100321.85;;;0.71;80.08
55044;BME280;54902;50.420;18.854;2023-02-26T02:59:57;100330.85;;;0.70;80.05
55044;BME280;54902;50.420;18.854;2023-02-26T03:00:34;100332.67;;;0.70;80.04
55044;BME280;54902;50.420;18.854;2023-02-26T03:01:11;100317.49;;;0.69;80.03
55044;BME280;54902;50.420;18.854;2023-02-26T03:01:44;100322.78;;;0.70;79.98
55044;BME280;54902;50.420;18.854;2023-02-26T03:04:26;100316.64;;;0.68;79.96
55044;BME280;54902;50.420;18.854;2023-02-26T03:04:57;100320.27;;;0.67;79.95
55044;BME280;54902;50.420;18.854;2023-02-26T03:05:28;100311.27;;;0.68;79.93
55044;BME280;54902;50.420;18.854;2023-02-26T03:05:59;100313.10;;;0.68;79.88
55044;BME280;54902;50.420;18.854;2023-02-26T03:06:30;100325.64;;;0.67;79.86
55044;BME280;54902;50.420;18.854;2023-02-26T03:07:01;100327.47;;;0.67;79.87
55044;BME280;54902;50.420;18.854;2023-02-26T03:07:39;100330.16;;;0.67;79.86
55044;BME280;54902;50.420;18.854;2023-02-26T03:08:15;100326.58;;;0.66;79.84
55044;BME280;54902;50.420;18.854;2023-02-26T03:08:47;100329.27;;;0.66;79.84
55044;BME280;54902;50.420;18.854;2023-02-26T03:09:18;100322.10;;;0.67;79.88
55044;BME280;54902;50.420;18.854;2023-02-26T03:09:49;100325.81;;;0.64;79.84
55044;BME280;54902;50.420;18.854;2023-02-26T03:10:20;100313.31;;;0.63;79.83
55044;BME280;54902;50.420;18.854;2023-02-26T03:10:51;100324.87;;;0.65;79.84
55044;BME280;54902;50.420;18.854;2023-02-26T03:11:22;100325.90;;;0.63;79.83
55044;BME280;54902;50.420;18.854;2023-02-26T03:11:53;100325.81;;;0.64;79.81
55044;BME280;54902;50.420;18.854;2023-02-26T03:12:31;100324.06;;;0.63;79.82
55044;BME280;54902;50.420;18.854;2023-02-26T03:13:02;100329.43;;;0.63;79.83
55044;BME280;54902;50.420;18.854;2023-02-26T03:13:34;100317.83;;;0.63;79.80
55044;BME280;54902;50.420;18.854;2023-02-26T03:14:07;100328.58;;;0.63;79.81
55044;BME280;54902;50.420;18.854;2023-02-26T03:14:40;100327.69;;;0.62;79.82
55044;BME280;54902;50.420;18.854;2023-02-26T03:15:12;100331.35;;;0.61;79.81
55044;BME280;54902;50.420;18.854;2023-02-26T03:18:47;100334.04;;;0.61;79.85
55044;BME280;54902;50.420;18.854;2023-02-26T03:19:29;100337.66;;;0.60;79.86
55044;BME280;54902;50.420;18.854;2023-02-26T03:20:56;100343.03;;;0.60;79.82
55044;BME280;54902;50.420;18.854;2023-02-26T03:23:00;100342.09;;;0.61;79.72
55044;BME280;54902;50.420;18.854;2023-02-26T03:23:45;100340.35;;;0.60;79.68
55044;BME280;54902;50.420;18.854;2023-02-26T03:24:25;100342.15;;;0.60;79.69
55044;BME280;54902;50.420;18.854;2023-02-26T03:25:02;100353.78;;;0.60;79.68
55044;BME280;54902;50.420;18.854;2023-02-26T03:26:28;100348.49;;;0.59;79.69
55044;BME280;54902;50.420;18.854;2023-02-26T03:27:09;100349.44;;;0.58;79.70
55044;BME280;54902;50.420;18.854;2023-02-26T03:27:48;100344.91;;;0.58;79.70
55044;BME280;54902;50.420;18.854;2023-02-26T03:28:33;100348.59;;;0.58;79.70
55044;BME280;54902;50.420;18.854;2023-02-26T03:30:41;100359.32;;;0.58;79.75
55044;BME280;54902;50.420;18.854;2023-02-26T03:31:25;100358.43;;;0.57;79.74
55044;BME280;54902;50.420;18.854;2023-02-26T03:31:59;100356.63;;;0.58;79.75
55044;BME280;54902;50.420;18.854;2023-02-26T03:33:27;100359.32;;;0.58;79.76
55044;BME280;54902;50.420;18.854;2023-02-26T03:34:49;100366.41;;;0.58;79.72
55044;BME280;54902;50.420;18.854;2023-02-26T03:35:27;100362.01;;;0.58;79.71
55044;BME280;54902;50.420;18.854;2023-02-26T03:36:50;100368.32;;;0.57;79.69
55044;BME280;54902;50.420;18.854;2023-02-26T03:37:49;100372.76;;;0.58;79.67
55044;BME280;54902;50.420;18.854;2023-02-26T03:38:08;100369.27;;;0.56;79.65
55044;BME280;54902;50.420;18.854;2023-02-26T03:39:30;100372.80;;;0.56;79.63
55044;BME280;54902;50.420;18.854;2023-02-26T03:40:08;100368.40;;;0.55;79.64
55044;BME280;54902;50.420;18.854;2023-02-26T03:40:48;100377.31;;;0.56;79.65
55044;BME280;54902;50.420;18.854;2023-02-26T03:42:14;100374.63;;;0.56;79.61
55044;BME280;54902;50.420;18.854;2023-02-26T03:42:52;100379.14;;;0.55;79.62
55044;BME280;54902;50.420;18.854;2023-02-26T03:44:58;100383.63;;;0.55;79.59
55044;BME280;54902;50.420;18.854;2023-02-26T03:45:33;100387.29;;;0.54;79.59
55044;BME280;54902;50.420;18.854;2023-02-26T03:46:08;100389.09;;;0.53;79.58
55044;BME280;54902;50.420;18.854;2023-02-26T03:46:48;100381.91;;;0.54;79.53
55044;BME280;54902;50.420;18.854;2023-02-26T03:47:21;100396.29;;;0.53;79.50
55044;BME280;54902;50.420;18.854;2023-02-26T03:47:53;100389.16;;;0.52;79.50
55044;BME280;54902;50.420;18.854;2023-02-26T03:48:27;100394.55;;;0.52;79.48
55044;BME280;54902;50.420;18.854;2023-02-26T03:49:08;100380.46;;;0.47;79.32
55044;BME280;54902;50.420;18.854;2023-02-26T03:49:43;100392.79;;;0.51;79.41
55044;BME280;54902;50.420;18.854;2023-02-26T03:51:02;100395.56;;;0.49;79.39
55044;BME280;54902;50.420;18.854;2023-02-26T03:51:36;100399.18;;;0.48;79.38
55044;BME280;54902;50.420;18.854;2023-02-26T03:52:08;100399.18;;;0.48;79.34
55044;BME280;54902;50.420;18.854;2023-02-26T03:52:42;100407.33;;;0.47;79.34
55044;BME280;54902;50.420;18.854;2023-02-26T03:53:20;100403.77;;;0.46;79.35
55044;BME280;54902;50.420;18.854;2023-02-26T03:54:07;100402.89;;;0.46;79.34
55044;BME280;54902;50.420;18.854;2023-02-26T03:55:18;100408.34;;;0.44;79.31
55044;BME280;54902;50.420;18.854;2023-02-26T03:55:58;100409.23;;;0.45;79.31
55044;BME280;54902;50.420;18.854;2023-02-26T03:56:39;100410.16;;;0.44;79.31
55044;BME280;54902;50.420;18.854;2023-02-26T03:57:11;100416.48;;;0.43;79.26
55044;BME280;54902;50.420;18.854;2023-02-26T03:57:42;100411.09;;;0.43;79.26
55044;BME280;54902;50.420;18.854;2023-02-26T03:58:14;100412.94;;;0.42;79.27
55044;BME280;54902;50.420;18.854;2023-02-26T03:58:45;100414.73;;;0.42;79.28
55044;BME280;54902;50.420;18.854;2023-02-26T03:59:16;100419.24;;;0.41;79.26
55044;BME280;54902;50.420;18.854;2023-02-26T03:59:48;100416.63;;;0.40;79.26